createdAt,value
2023-02-13T00:00:26.086Z,14.10
2023-02-13T00:02:54.008Z,13.10
2023-02-13T00:05:21.949Z,13.47
2023-02-13T00:07:49.899Z,15.13
2023-02-13T00:10:18.281Z,13.87
2023-02-13T00:12:46.227Z,15.33
2023-02-13T00:15:14.193Z,14.87
2023-02-13T00:17:43.564Z,12.63
2023-02-13T00:20:11.964Z,11.33
2023-02-13T00:22:39.947Z,11.90
2023-02-13T00:25:08.814Z,10.00
2023-02-13T00:27:36.907Z,9.97
2023-02-13T00:30:05.069Z,10.23
2023-02-13T00:32:33.020Z,10.30
2023-02-13T00:35:02.303Z,11.43
2023-02-13T00:37:30.298Z,9.13
2023-02-13T00:39:58.226Z,10.30
2023-02-13T00:42:26.679Z,9.90
2023-02-13T00:44:54.657Z,10.40
2023-02-13T00:47:22.829Z,9.53
2023-02-13T00:49:50.776Z,9.97
2023-02-13T00:52:20.102Z,11.27
2023-02-13T00:54:48.387Z,12.57
2023-02-13T00:57:16.338Z,6.33
2023-02-13T00:59:44.326Z,6.77
2023-02-13T01:02:12.251Z,8.50
2023-02-13T01:04:40.274Z,8.20
2023-02-13T01:07:08.240Z,7.20
2023-02-13T01:09:37.586Z,7.93
2023-02-13T01:12:05.672Z,7.67
2023-02-13T01:14:33.620Z,9.43
2023-02-13T01:17:01.547Z,7.37
2023-02-13T01:19:29.490Z,7.13
2023-02-13T01:21:57.478Z,6.53
2023-02-13T01:24:25.436Z,6.80
2023-02-13T01:26:54.716Z,7.47
2023-02-13T01:29:22.654Z,5.47
2023-02-13T01:31:50.829Z,8.00
2023-02-13T01:34:18.832Z,8.03
2023-02-13T01:36:46.731Z,5.93
2023-02-13T01:39:14.652Z,5.80
2023-02-13T01:41:42.614Z,5.87
2023-02-13T01:44:43.808Z,5.17
2023-02-13T01:47:14.107Z,5.60
2023-02-13T01:49:42.045Z,6.23
2023-02-13T01:52:10.019Z,6.63
2023-02-13T01:54:37.959Z,6.40
2023-02-13T01:57:07.155Z,5.53
2023-02-13T01:59:36.160Z,5.30
2023-02-13T02:02:04.207Z,6.43
2023-02-13T02:04:34.304Z,4.50
2023-02-13T02:07:04.153Z,4.50
2023-02-13T02:09:33.983Z,5.50
2023-02-13T02:12:02.937Z,5.57
2023-02-13T02:14:30.900Z,6.67
2023-02-13T02:16:58.835Z,5.00
2023-02-13T02:19:31.467Z,4.60
2023-02-13T02:22:25.498Z,6.00
2023-02-13T02:25:20.506Z,5.40
2023-02-13T02:28:20.156Z,5.17
2023-02-13T02:31:03.308Z,5.23
2023-02-13T02:33:35.931Z,6.60
2023-02-13T02:36:14.078Z,4.90
2023-02-13T02:38:48.755Z,5.10
2023-02-13T02:41:38.639Z,5.40
2023-02-13T02:44:12.687Z,6.10
2023-02-13T02:47:01.896Z,5.27
2023-02-13T02:49:48.861Z,6.23
2023-02-13T02:52:19.003Z,5.77
2023-02-13T02:55:05.252Z,3.80
2023-02-13T02:57:47.878Z,6.20
2023-02-13T03:00:33.479Z,5.83
2023-02-13T03:03:18.603Z,5.40
2023-02-13T03:06:05.123Z,5.83
2023-02-13T03:08:50.432Z,9.03
2023-02-13T03:11:35.632Z,7.83
2023-02-13T03:14:03.684Z,6.20
2023-02-13T03:16:48.935Z,6.77
2023-02-13T03:19:36.777Z,5.40
2023-02-13T03:22:19.690Z,5.00
2023-02-13T03:24:51.049Z,6.90
2023-02-13T03:27:45.370Z,5.63
2023-02-13T03:30:19.217Z,5.00
2023-02-13T03:32:48.913Z,5.00
2023-02-13T03:35:47.479Z,5.47
2023-02-13T03:38:19.529Z,4.90
2023-02-13T03:41:03.596Z,5.30
2023-02-13T03:43:32.858Z,6.10
2023-02-13T03:46:02.546Z,6.43
2023-02-13T03:48:49.235Z,6.93
2023-02-13T03:51:19.810Z,6.70
2023-02-13T03:53:50.595Z,9.17
2023-02-13T03:56:36.593Z,9.17
2023-02-13T03:59:17.295Z,7.90
2023-02-13T04:01:56.236Z,9.83
2023-02-13T04:04:26.866Z,9.17
2023-02-13T04:06:57.418Z,9.37
2023-02-13T04:09:27.392Z,9.17
2023-02-13T04:11:58.528Z,10.10
2023-02-13T04:14:27.695Z,7.37
2023-02-13T04:16:58.164Z,8.83
2023-02-13T04:19:26.427Z,9.33
2023-02-13T04:21:57.031Z,8.70
2023-02-13T04:24:26.391Z,7.27
2023-02-13T04:26:54.354Z,8.20
2023-02-13T04:29:22.522Z,7.53
2023-02-13T04:31:50.597Z,9.57
2023-02-13T04:34:18.596Z,10.40
2023-02-13T04:36:46.569Z,10.10
2023-02-13T04:39:14.553Z,11.27
2023-02-13T04:41:44.238Z,8.80
2023-02-13T04:44:12.197Z,7.67
2023-02-13T04:46:40.138Z,7.83
2023-02-13T04:49:08.073Z,7.70
2023-02-13T04:51:36.000Z,8.50
2023-02-13T04:54:03.938Z,6.90
2023-02-13T04:56:31.880Z,7.20
2023-02-13T04:59:01.220Z,9.10
2023-02-13T05:01:29.279Z,8.00
2023-02-13T05:03:57.278Z,9.37
2023-02-13T05:06:25.272Z,18.20
2023-02-13T05:08:53.226Z,10.80
2023-02-13T05:11:21.188Z,9.13
2023-02-13T05:13:49.156Z,9.23
2023-02-13T05:16:18.492Z,8.00
2023-02-13T05:18:46.485Z,6.90
2023-02-13T05:21:31.707Z,8.50
2023-02-13T05:23:59.651Z,7.57
2023-02-13T05:26:27.666Z,9.13
2023-02-13T05:29:12.754Z,10.70
2023-02-13T05:31:42.252Z,13.03
2023-02-13T05:34:10.353Z,11.87
2023-02-13T05:36:38.318Z,14.10
2023-02-13T05:39:06.882Z,13.73
2023-02-13T05:41:34.835Z,13.70
2023-02-13T05:44:02.775Z,11.87
2023-02-13T05:46:30.867Z,13.60
2023-02-13T05:49:00.264Z,13.67
2023-02-13T05:51:28.175Z,13.97
2023-02-13T05:53:56.124Z,13.13
2023-02-13T05:56:24.042Z,15.17
2023-02-13T05:58:52.793Z,12.07
2023-02-13T06:01:20.754Z,12.20
2023-02-13T06:03:48.784Z,13.37
2023-02-13T06:06:18.179Z,12.83
2023-02-13T06:08:46.103Z,13.63
2023-02-13T06:11:14.029Z,14.27
2023-02-13T06:13:41.994Z,13.07
2023-02-13T06:16:10.197Z,12.60
2023-02-13T06:18:38.200Z,14.20
2023-02-13T06:21:06.622Z,13.63
2023-02-13T06:23:36.016Z,16.03
2023-02-13T06:26:05.047Z,19.20
2023-02-13T06:28:32.922Z,12.53
2023-02-13T06:31:01.537Z,14.00
2023-02-13T06:33:29.652Z,15.23
2023-02-13T06:35:57.673Z,15.70
2023-02-13T06:38:25.657Z,14.67
2023-02-13T06:40:54.936Z,14.30
2023-02-13T06:43:22.920Z,16.67
2023-02-13T06:45:51.912Z,17.03
2023-02-13T06:48:19.859Z,13.87
2023-02-13T06:50:47.781Z,10.63
2023-02-13T06:53:15.753Z,9.07
2023-02-13T06:55:43.868Z,11.20
2023-02-13T06:58:13.176Z,12.87
2023-02-13T07:00:41.195Z,11.30
2023-02-13T07:03:10.004Z,10.27
2023-02-13T07:05:40.757Z,11.27
2023-02-13T07:08:08.754Z,9.17
2023-02-13T09:12:41.429Z,16.93
2023-02-13T09:15:10.288Z,13.83
2023-02-13T09:17:38.266Z,11.30
2023-02-13T09:20:07.268Z,11.27
2023-02-13T09:22:35.263Z,9.20
2023-02-13T09:25:04.395Z,12.70
2023-02-13T09:27:32.442Z,13.97
2023-02-13T09:30:02.142Z,10.33
2023-02-13T09:32:30.295Z,11.40
2023-02-13T09:34:58.474Z,11.40
2023-02-13T09:37:27.104Z,11.57
2023-02-13T09:39:55.064Z,10.20
2023-02-13T09:42:25.376Z,14.20
2023-02-13T09:44:53.804Z,12.80
2023-02-13T09:47:28.373Z,13.70
2023-02-13T09:49:58.257Z,14.30
2023-02-13T09:52:26.475Z,13.23
2023-02-13T09:54:54.385Z,13.20
2023-02-13T09:57:27.185Z,13.70
2023-02-13T09:59:59.536Z,12.73
2023-02-13T10:02:39.603Z,12.70
2023-02-13T10:05:12.512Z,13.07
2023-02-13T10:07:42.310Z,13.23
2023-02-13T10:10:14.878Z,14.67
2023-02-13T10:12:55.892Z,13.90
2023-02-13T10:15:27.207Z,12.80
2023-02-13T10:17:59.042Z,13.67
2023-02-13T10:20:30.113Z,15.60
2023-02-13T10:22:59.254Z,13.77
2023-02-13T10:25:28.532Z,13.00
2023-02-13T10:27:57.212Z,14.43
2023-02-13T10:30:26.454Z,13.67
2023-02-13T10:33:13.780Z,14.10
2023-02-13T10:35:41.721Z,13.00
2023-02-13T10:38:17.339Z,12.03
2023-02-13T10:40:52.778Z,12.27
2023-02-13T10:43:21.735Z,13.03
2023-02-13T10:46:05.150Z,12.37
2023-02-13T10:48:48.890Z,10.47
2023-02-13T10:51:19.932Z,10.63
2023-02-13T10:53:54.450Z,13.30
2023-02-13T10:56:26.116Z,12.70
2023-02-13T10:59:08.646Z,15.17
2023-02-13T11:01:40.450Z,14.90
2023-02-13T11:04:11.616Z,13.40
2023-02-13T11:06:42.744Z,12.40
2023-02-13T11:09:13.389Z,15.17
2023-02-13T11:11:42.514Z,14.27
2023-02-13T11:14:12.573Z,13.03
2023-02-13T11:17:01.951Z,14.63
2023-02-13T11:19:35.128Z,13.70
2023-02-13T11:22:04.969Z,15.63
2023-02-13T11:24:33.008Z,13.33
2023-02-13T11:27:02.535Z,13.93
2023-02-13T11:29:31.047Z,13.63
2023-02-13T11:32:04.184Z,12.80
2023-02-13T11:34:34.181Z,14.87
2023-02-13T11:37:21.872Z,15.30
2023-02-13T11:39:51.533Z,15.23
2023-02-13T11:42:26.083Z,14.23
2023-02-13T11:44:55.048Z,13.83
2023-02-13T11:47:41.840Z,14.40
2023-02-13T11:50:23.390Z,13.53
2023-02-13T11:52:59.055Z,16.30
2023-02-13T11:55:32.406Z,15.47
2023-02-13T11:58:01.476Z,16.63
2023-02-13T12:00:33.860Z,16.00
2023-02-13T12:03:01.866Z,15.73
2023-02-13T12:05:31.263Z,14.90
2023-02-13T12:08:01.626Z,15.90
2023-02-13T12:10:29.903Z,18.27
2023-02-13T12:12:58.998Z,17.47
2023-02-13T12:15:27.966Z,16.03
2023-02-13T12:18:05.197Z,16.27
2023-02-13T12:20:41.381Z,17.73
2023-02-13T12:23:13.603Z,16.27
2023-02-13T12:25:49.496Z,13.40
2023-02-13T12:28:18.354Z,14.77
2023-02-13T12:31:22.498Z,14.93
2023-02-13T12:34:41.084Z,14.47
2023-02-13T12:37:17.722Z,15.00
2023-02-13T12:39:50.077Z,14.20
2023-02-13T12:42:24.348Z,16.00
2023-02-13T12:45:00.950Z,16.03
2023-02-13T12:47:30.332Z,14.83
2023-02-13T12:50:18.690Z,14.00
2023-02-13T12:52:56.611Z,13.07
2023-02-13T12:55:31.340Z,14.27
2023-02-13T12:58:06.622Z,13.57
2023-02-13T13:00:41.295Z,15.27
2023-02-13T13:03:39.125Z,13.27
2023-02-13T13:06:15.294Z,14.77
2023-02-13T13:08:56.184Z,17.17
2023-02-13T13:11:31.147Z,18.80
2023-02-13T13:14:02.208Z,14.20
2023-02-13T13:16:34.601Z,12.40
2023-02-13T13:19:07.453Z,16.65
2023-02-13T13:21:40.000Z,17.07
2023-02-13T13:24:14.896Z,16.73
2023-02-13T13:26:43.369Z,14.47
2023-02-13T13:29:13.129Z,15.73
2023-02-13T13:31:41.154Z,14.03
2023-02-13T13:34:14.063Z,16.60
2023-02-13T13:36:44.971Z,18.60
2023-02-13T13:39:21.753Z,15.90
2023-02-13T13:41:52.230Z,15.37
2023-02-13T13:44:39.397Z,14.57
2023-02-13T13:47:10.653Z,23.50
2023-02-13T13:49:41.694Z,13.07
2023-02-13T13:52:20.987Z,12.57
2023-02-13T13:54:51.716Z,13.20
2023-02-13T13:57:19.700Z,12.53
2023-02-13T14:00:29.488Z,15.17
2023-02-13T14:03:25.893Z,13.47
2023-02-13T14:06:07.786Z,12.63
2023-02-13T14:09:09.724Z,13.80
2023-02-13T14:11:40.795Z,15.00
2023-02-13T14:14:52.620Z,13.87
2023-02-13T14:17:54.599Z,17.33
2023-02-13T14:20:29.868Z,18.37
2023-02-13T14:22:57.859Z,14.40
2023-02-13T14:25:26.906Z,15.13
2023-02-13T14:28:00.382Z,12.03
2023-02-13T14:30:30.368Z,13.07
2023-02-13T14:32:58.379Z,13.23
2023-02-13T14:35:27.771Z,13.10
2023-02-13T14:37:57.619Z,13.63
2023-02-13T14:40:44.384Z,12.40
2023-02-13T14:43:31.127Z,16.90
2023-02-13T14:46:00.404Z,12.63
2023-02-13T15:04:18.412Z,16.00
2023-02-13T15:06:46.485Z,18.50
2023-02-13T15:09:21.886Z,16.07
2023-02-13T15:11:49.830Z,14.50
2023-02-13T15:14:21.992Z,18.00
2023-02-13T15:16:52.494Z,17.00
2023-02-13T15:19:22.335Z,24.60
2023-02-13T15:21:52.873Z,18.57
2023-02-13T15:24:22.926Z,15.80
2023-02-13T15:26:52.514Z,16.07
2023-02-13T15:29:29.350Z,16.53
2023-02-13T15:32:01.030Z,17.73
2023-02-13T15:34:32.250Z,19.40
2023-02-13T15:37:00.167Z,21.47
2023-02-13T15:39:28.805Z,22.27
2023-02-13T15:41:58.288Z,22.67
2023-02-13T15:44:28.560Z,25.50
2023-02-13T15:46:57.638Z,29.73
2023-02-13T15:49:26.809Z,32.47
2023-02-13T15:52:04.990Z,32.50
2023-02-13T15:54:34.318Z,29.77
2023-02-13T15:57:03.691Z,32.87
2023-02-13T15:59:33.878Z,35.30
2023-02-13T16:02:01.887Z,34.27
2023-02-13T16:04:30.350Z,35.70
2023-02-13T16:06:58.399Z,31.30
2023-02-13T16:09:31.419Z,30.80
2023-02-13T16:12:02.649Z,26.10
2023-02-13T16:14:31.822Z,47.00
2023-02-13T16:17:01.076Z,29.20
2023-02-13T16:19:40.564Z,27.10
2023-02-13T16:22:36.200Z,31.17
2023-02-13T16:25:13.241Z,32.53
2023-02-13T16:27:43.708Z,46.83
2023-02-13T16:30:24.410Z,35.67
2023-02-13T16:32:52.470Z,106.07
2023-02-13T16:35:28.580Z,41.03
2023-02-13T16:37:57.503Z,52.73
2023-02-13T16:40:38.518Z,125.20
2023-02-13T16:43:34.865Z,76.60
2023-02-13T16:46:19.127Z,41.87
2023-02-13T16:48:48.124Z,34.60
2023-02-13T16:51:16.074Z,22.97
2023-02-13T16:53:43.987Z,31.77
2023-02-13T16:56:13.348Z,25.97
2023-02-13T16:58:41.444Z,27.10
2023-02-13T17:01:14.835Z,35.60
2023-02-13T17:03:42.905Z,31.90
2023-02-13T17:06:10.980Z,45.37
2023-02-13T17:08:38.905Z,73.00
2023-02-13T17:11:07.697Z,34.50
2023-02-13T17:13:37.067Z,59.33
2023-02-13T17:16:05.298Z,48.20
2023-02-13T17:18:33.362Z,61.27
2023-02-13T17:21:01.481Z,41.60
2023-02-13T17:23:29.581Z,32.03
2023-02-13T17:25:57.636Z,26.90
2023-02-13T17:28:29.510Z,31.70
2023-02-13T17:30:59.097Z,43.17
2023-02-13T17:33:28.158Z,94.90
2023-02-13T17:35:56.150Z,74.17
2023-02-13T17:38:24.241Z,86.60
2023-02-13T17:40:52.510Z,75.27
2023-02-13T17:43:20.875Z,39.50
2023-02-13T17:45:49.759Z,38.27
2023-02-13T17:48:19.227Z,33.40
2023-02-13T17:50:47.371Z,37.50
2023-02-13T17:53:17.727Z,41.27
2023-02-13T17:55:45.646Z,84.83
2023-02-13T17:58:13.642Z,46.00
2023-02-13T18:00:41.567Z,49.20
2023-02-13T18:03:09.508Z,68.90
2023-02-13T18:05:38.841Z,59.07
2023-02-13T18:08:06.783Z,147.53
2023-02-13T18:10:36.045Z,55.77
2023-02-13T18:13:05.180Z,153.20
2023-02-13T18:15:33.696Z,57.13
2023-02-13T18:18:01.725Z,43.17
2023-02-13T18:20:29.955Z,73.37
2023-02-13T18:22:59.263Z,77.83
2023-02-13T18:25:27.246Z,62.90
2023-02-13T18:27:55.602Z,50.90
2023-02-13T18:30:23.718Z,42.40
2023-02-13T18:32:55.388Z,67.73
2023-02-13T18:35:23.521Z,63.57
2023-02-13T18:37:51.497Z,68.03
2023-02-13T18:40:20.932Z,76.13
2023-02-13T18:42:51.107Z,35.60
2023-02-13T18:45:19.231Z,41.77
2023-02-13T18:47:47.153Z,79.00
2023-02-13T18:50:15.108Z,35.57
2023-02-13T18:52:43.116Z,68.87
2023-02-13T18:55:11.083Z,55.23
2023-02-13T18:57:43.478Z,43.43
2023-02-13T19:00:13.266Z,28.00
2023-02-13T19:02:41.320Z,22.27
2023-02-13T19:05:09.680Z,22.10
2023-02-13T19:07:37.645Z,33.63
2023-02-13T19:10:07.129Z,32.97
2023-02-13T19:12:35.128Z,27.37
2023-02-13T19:15:04.681Z,25.57
2023-02-13T19:17:32.640Z,26.67
2023-02-13T19:20:00.662Z,24.87
2023-02-13T19:22:28.668Z,43.33
2023-02-13T19:24:56.592Z,48.50
2023-02-13T19:27:24.538Z,32.57
2023-02-13T19:29:52.474Z,28.87
2023-02-13T19:32:21.872Z,33.57
2023-02-13T19:34:49.838Z,23.53
2023-02-13T19:37:17.801Z,70.37
2023-02-13T19:39:45.787Z,36.73
2023-02-13T19:42:13.761Z,52.23
2023-02-13T19:44:41.664Z,36.67
2023-02-13T19:47:09.610Z,32.63
2023-02-13T19:49:38.895Z,61.97
2023-02-13T19:52:06.888Z,61.93
2023-02-13T19:54:35.220Z,33.03
2023-02-13T19:57:05.774Z,23.93
2023-02-13T19:59:33.758Z,27.87
2023-02-13T20:02:01.829Z,41.50
2023-02-13T20:04:29.800Z,25.03
2023-02-13T20:06:59.146Z,21.50
2023-02-13T20:09:27.086Z,32.27
2023-02-13T20:11:55.063Z,23.53
2023-02-13T20:14:23.005Z,19.00
2023-02-13T20:16:50.960Z,21.73
2023-02-13T20:19:18.900Z,26.17
2023-02-13T20:21:46.837Z,18.73
2023-02-13T20:24:16.201Z,18.20
2023-02-13T20:26:44.161Z,18.30
2023-02-13T20:29:12.096Z,22.57
2023-02-13T20:31:41.502Z,19.27
2023-02-13T20:34:09.629Z,19.47
2023-02-13T20:36:37.570Z,21.87
2023-02-13T20:39:06.287Z,18.90
2023-02-13T20:41:36.207Z,20.07
2023-02-13T20:44:05.168Z,20.00
2023-02-13T20:46:33.245Z,21.60
2023-02-13T20:49:01.180Z,29.00
2023-02-13T20:51:29.594Z,23.83
2023-02-13T20:53:57.541Z,20.27
2023-02-13T20:56:29.288Z,21.43
2023-02-13T20:58:59.424Z,19.83
2023-02-13T21:01:28.197Z,20.47
2023-02-13T21:03:56.506Z,30.27
2023-02-13T21:06:24.967Z,26.03
2023-02-13T21:08:53.126Z,18.60
2023-02-13T21:11:21.180Z,19.47
2023-02-13T21:13:49.472Z,19.47
2023-02-13T21:16:19.827Z,19.77
2023-02-13T21:18:48.683Z,19.50
2023-02-13T21:21:16.723Z,19.67
2023-02-13T21:23:44.673Z,21.93
2023-02-13T21:26:13.834Z,22.60
2023-02-13T21:28:41.769Z,24.70
2023-02-13T21:31:10.458Z,28.17
2023-02-13T21:33:39.782Z,32.53
2023-02-13T21:36:09.037Z,31.43
2023-02-13T21:38:37.187Z,32.60
2023-02-13T21:41:06.551Z,30.40
2023-02-13T21:43:37.678Z,30.87
2023-02-13T21:46:09.918Z,31.47
2023-02-13T21:48:39.317Z,30.43
2023-02-13T21:51:07.768Z,25.10
2023-02-13T21:53:35.710Z,26.83
2023-02-13T21:56:04.140Z,19.40
2023-02-13T21:58:33.839Z,19.63
2023-02-13T22:01:02.229Z,17.67
2023-02-13T22:03:30.391Z,16.30
2023-02-13T22:05:59.736Z,16.10
2023-02-13T22:08:27.700Z,14.40
2023-02-13T22:10:55.835Z,12.90
2023-02-13T22:13:24.002Z,11.90
2023-02-13T22:16:00.097Z,13.30
2023-02-13T22:18:28.079Z,11.50
2023-02-13T22:20:56.273Z,12.77
2023-02-13T22:23:26.351Z,13.60
2023-02-13T22:25:54.293Z,13.60
2023-02-13T22:28:22.298Z,12.70
2023-02-13T22:30:50.421Z,13.50
2023-02-13T22:33:18.463Z,13.63
2023-02-13T22:35:46.387Z,11.50
2023-02-13T22:38:14.327Z,13.77
2023-02-13T22:40:43.621Z,13.40
2023-02-13T22:43:11.545Z,13.10
2023-02-13T22:45:39.624Z,11.97
2023-02-13T22:48:07.584Z,13.00
2023-02-13T22:50:35.635Z,12.60
2023-02-13T22:53:03.609Z,10.10
2023-02-13T22:55:31.558Z,10.47
2023-02-13T22:58:00.866Z,11.10
2023-02-13T23:00:28.833Z,10.40
2023-02-13T23:02:56.772Z,15.20
2023-02-13T23:05:24.709Z,17.17
2023-02-13T23:07:52.676Z,17.27
2023-02-13T23:10:20.640Z,17.70
2023-02-13T23:12:49.911Z,19.53
2023-02-13T23:15:20.097Z,16.87
2023-02-13T23:18:04.679Z,14.50
2023-02-13T23:20:32.605Z,17.60
2023-02-13T23:23:00.535Z,14.63
2023-02-13T23:25:28.614Z,14.47
2023-02-13T23:27:56.839Z,15.97
2023-02-13T23:30:26.546Z,15.47
2023-02-13T23:32:54.553Z,14.70
2023-02-13T23:35:22.463Z,15.20
2023-02-13T23:37:50.388Z,17.07
2023-02-13T23:40:18.521Z,15.27
2023-02-13T23:42:46.534Z,16.13
2023-02-13T23:45:14.441Z,16.77
2023-02-13T23:47:43.777Z,16.17
2023-02-13T23:50:11.997Z,15.97
2023-02-13T23:52:39.963Z,15.87
2023-02-13T23:55:08.128Z,14.67
2023-02-13T23:57:36.351Z,18.43
